PAGY/SGY METAR and TAF weather

Enter ICAO airport designator
Station Type Date Time Source
PAGY METAR 2020/01/23 05:53 UTC NOAA

PAGY 230553Z AUTO 04010KT 10SM OVC055 02/M04 A2945 RMK AO2 SLP974 60000 T00171044 10022 21006 56021 TSNO


Station Type Date Time Source
PAGY Decoded METAR 2020/01/23 05:53 UTC NOAA

SKAGWAY AIRPORT, AK, United States (PAGY) 59-28N 135-19W 5M
Jan 23, 2020 - 12:53 AM EST / 2020.01.23 0553 UTC
Wind: from the NE (040 degrees) at 12 MPH (10 KT):0
Visibility: 10 mile(s):0
Sky conditions: overcast
Temperature: 35.1 F (1.7 C)
Dew Point: 24.1 F (-4.4 C)
Relative Humidity: 63%
Pressure (altimeter): 29.45 in. Hg (997 hPa)
Pressure tendency: 0.06 inches (2.1 hPa) lower than three hours ago
ob: PAGY 230553Z AUTO 04010KT 10SM OVC055 02/M04 A2945 RMK AO2 SLP974 60000 T00171044 10022 21006 56021 TSNO
cycle: 6

Station Type Date Time Source
PAGY TAF 2020/01/23 06:39 UTC NOAA

TAF PAGY 230536Z 2306/2406 03009KT P6SM VCSH OVC060
TEMPO 2306/2309 2SM -SN BR SCT030 OVC045
FM230900 03006KT 2SM -SN BR OVC025
FM231500 03010G15KT 1SM -SN BR OVC015
FM240000 04004KT 3SM -SN BR OVC015
AMD LTD TO CLD VIS AND WIND

Example: see airport list